Time;durP1;ratioP1;P1;durP2;ratioP2;P2;SDS_P1;SDS_P2;PMS_P1;PMS_P2;Temp;Humidity;BMP_temperature;BMP_pressure;BME280_temperature;BME280_humidity;BME280_pressure;Samples;Min_cycle;Max_cycle;Signal;HPM_P1;HPM_P2
2022/09/16 00:00:16;;;;;;;8.23;4.28;;;12.60;99.90;;;;;;5052749;28;20021;-75
2022/09/16 00:02:41;;;;;;;5.53;2.70;;;12.60;99.90;;;;;;5054271;28;20021;-75
2022/09/16 00:05:08;;;;;;;6.15;1.90;;;12.60;99.90;;;;;;5053471;28;20037;-74
2022/09/16 00:07:34;;;;;;;10.05;1.63;;;12.50;99.90;;;;;;5053107;28;20021;-74
2022/09/16 00:09:59;;;;;;;6.82;1.48;;;12.50;99.90;;;;;;5052426;28;20028;-74
2022/09/16 00:12:25;;;;;;;5.78;1.30;;;12.50;99.90;;;;;;5052481;28;20025;-74
2022/09/16 00:14:54;;;;;;;7.85;1.38;;;12.60;99.90;;;;;;5053159;28;20029;-74
2022/09/16 00:17:20;;;;;;;10.75;1.70;;;12.70;99.90;;;;;;5051734;28;20499;-74
2022/09/16 00:19:46;;;;;;;11.02;1.95;;;12.70;99.90;;;;;;5052616;28;20029;-74
2022/09/16 00:22:12;;;;;;;5.45;1.52;;;12.90;99.90;;;;;;5052533;28;20432;-74
2022/09/16 00:24:37;;;;;;;7.97;2.00;;;13.00;99.90;;;;;;5051737;28;20500;-74
2022/09/16 00:27:03;;;;;;;6.22;1.33;;;13.00;99.90;;;;;;5052382;28;20083;-74
2022/09/16 00:29:29;;;;;;;10.48;1.85;;;13.10;99.90;;;;;;5051626;28;20473;-74
2022/09/16 00:31:55;;;;;;;5.70;1.25;;;13.20;99.90;;;;;;5052833;28;20028;-74
2022/09/16 00:34:24;;;;;;;5.78;2.08;;;13.20;99.90;;;;;;5051925;28;20040;-74
2022/09/16 00:36:50;;;;;;;6.65;1.23;;;13.20;99.90;;;;;;5052005;28;20118;-74
2022/09/16 00:39:16;;;;;;;4.38;1.23;;;13.30;99.90;;;;;;5052185;28;20465;-74
2022/09/16 00:41:41;;;;;;;6.57;1.30;;;13.20;99.90;;;;;;5052622;28;20043;-74
2022/09/16 00:44:45;;;;;;;9.60;1.77;;;13.10;99.90;;;;;;5051413;28;20028;-75
2022/09/16 00:47:16;;;;;;;5.47;1.20;;;13.00;99.90;;;;;;5039771;28;20063;-75
2022/09/16 00:49:42;;;;;;;4.53;1.42;;;12.90;99.90;;;;;;5042015;28;20108;-75
2022/09/16 00:52:09;;;;;;;3.08;1.02;;;12.90;99.90;;;;;;5048207;28;20105;-75
2022/09/16 00:54:38;;;;;;;6.18;1.08;;;12.90;99.90;;;;;;5051967;28;20568;-74
2022/09/16 00:57:06;;;;;;;4.45;1.35;;;12.80;99.90;;;;;;5052074;28;20047;-75
2022/09/16 00:59:36;;;;;;;3.15;1.20;;;12.80;99.90;;;;;;5051581;28;20437;-75
2022/09/16 01:02:07;;;;;;;8.38;1.25;;;12.80;99.90;;;;;;5051997;28;20032;-75
2022/09/16 01:04:39;;;;;;;7.40;1.23;;;13.00;99.90;;;;;;5033115;28;20025;-75
2022/09/16 01:07:04;;;;;;;6.40;1.23;;;13.00;99.90;;;;;;5034261;28;20033;-75
2022/09/16 01:09:32;;;;;;;9.10;1.10;;;13.10;99.90;;;;;;5037992;28;20115;-74
2022/09/16 01:11:57;;;;;;;15.50;1.75;;;13.10;99.90;;;;;;5049175;28;20508;-73
2022/09/16 01:17:47;;;;;;;6.60;0.90;;;13.00;99.90;;;;;;5057247;28;20096;-74
2022/09/16 01:20:39;;;;;;;5.93;1.25;;;12.90;99.90;;;;;;5053703;28;20029;-75
2022/09/16 01:23:26;;;;;;;8.50;0.90;;;12.90;99.90;;;;;;5048986;28;20029;-74
2022/09/16 01:26:07;;;;;;;4.53;1.08;;;12.90;99.90;;;;;;5056533;28;20036;-74
2022/09/16 01:28:43;;;;;;;7.70;1.00;;;12.90;99.90;;;;;;5054499;28;20021;-74
2022/09/16 01:31:33;;;;;;;3.53;0.95;;;12.80;99.90;;;;;;5053685;28;20071;-74
2022/09/16 01:34:34;;;;;;;7.32;1.10;;;12.80;99.90;;;;;;5051201;28;20086;-74
2022/09/16 01:37:37;;;;;;;6.57;1.33;;;12.70;99.90;;;;;;5051951;28;20021;-75
2022/09/16 01:40:10;;;;;;;3.33;0.82;;;12.80;99.90;;;;;;5050001;28;20028;-74
2022/09/16 01:43:16;;;;;;;11.57;2.00;;;13.00;99.90;;;;;;5055762;28;20025;-74
2022/09/16 01:46:19;;;;;;;5.57;1.27;;;13.00;99.90;;;;;;5056037;28;20504;-74
2022/09/16 01:49:01;;;;;;;5.05;2.25;;;12.90;99.90;;;;;;5046243;28;20041;-74
2022/09/16 01:51:45;;;;;;;7.88;1.42;;;12.90;99.90;;;;;;5055358;28;20056;-73
2022/09/16 01:54:39;;;;;;;7.65;1.65;;;12.80;99.90;;;;;;5054368;28;20032;-73
2022/09/16 01:57:14;;;;;;;2.85;0.65;;;12.80;99.90;;;;;;5055385;28;20052;-73
2022/09/16 01:59:47;;;;;;;1.85;0.70;;;12.90;99.90;;;;;;5055342;28;20377;-73
2022/09/16 02:02:31;;;;;;;8.13;1.52;;;12.90;99.90;;;;;;5054257;28;20025;-73
2022/09/16 02:05:00;;;;;;;3.08;0.68;;;12.80;99.90;;;;;;5055378;28;20044;-73
2022/09/16 02:07:39;;;;;;;1.90;0.70;;;12.70;99.90;;;;;;5054875;28;20027;-74
2022/09/16 02:10:28;;;;;;;4.22;0.90;;;12.70;99.90;;;;;;5054121;28;20028;-73
2022/09/16 02:13:08;;;;;;;2.40;0.90;;;12.60;99.90;;;;;;5041158;28;20029;-74
2022/09/16 02:15:34;;;;;;;8.82;1.67;;;12.60;99.90;;;;;;5042698;28;20075;-74
2022/09/16 02:18:10;;;;;;;2.17;0.60;;;12.60;99.90;;;;;;5055642;28;20060;-73
2022/09/16 02:20:43;;;;;;;4.30;0.90;;;12.40;99.90;;;;;;5055786;28;20021;-74
2022/09/16 02:23:17;;;;;;;2.30;0.57;;;12.30;99.90;;;;;;5054112;28;20107;-74
2022/09/16 02:25:46;;;;;;;5.20;0.60;;;12.20;99.90;;;;;;5055515;28;20105;-74
2022/09/16 02:28:18;;;;;;;2.90;0.70;;;12.10;99.90;;;;;;5056654;28;20550;-74
2022/09/16 02:30:50;;;;;;;0.95;0.50;;;12.10;99.90;;;;;;5054712;28;20056;-74
2022/09/16 02:33:18;;;;;;;2.25;0.40;;;12.10;99.90;;;;;;5054523;28;20021;-74
2022/09/16 02:35:47;;;;;;;2.67;0.85;;;12.00;99.90;;;;;;5054738;28;20029;-73
2022/09/16 02:38:23;;;;;;;1.45;0.50;;;11.90;99.90;;;;;;5053609;28;20060;-73
2022/09/16 02:40:56;;;;;;;3.45;0.50;;;11.90;99.90;;;;;;5054355;28;20029;-73
2022/09/16 02:43:22;;;;;;;4.55;0.75;;;11.90;99.90;;;;;;5053621;28;20051;-73
2022/09/16 02:45:52;;;;;;;2.75;0.65;;;11.80;99.90;;;;;;5054415;28;20021;-73
2022/09/16 02:48:40;;;;;;;5.68;0.70;;;11.90;99.90;;;;;;5054233;28;20032;-74
2022/09/16 02:51:36;;;;;;;4.60;0.82;;;12.00;99.90;;;;;;5053579;28;20021;-74
2022/09/16 02:54:21;;;;;;;4.20;0.68;;;12.00;99.90;;;;;;5054096;28;20043;-74
2022/09/16 02:56:46;;;;;;;6.90;1.00;;;12.10;99.90;;;;;;5054227;28;20033;-74
2022/09/16 02:59:14;;;;;;;3.75;0.70;;;12.10;99.90;;;;;;5053194;28;20219;-73
2022/09/16 03:01:43;;;;;;;6.28;1.00;;;12.10;99.90;;;;;;5054267;28;20028;-74
2022/09/16 03:04:14;;;;;;;4.53;0.85;;;12.10;99.90;;;;;;5053803;28;20029;-74
2022/09/16 03:06:40;;;;;;;1.70;0.50;;;12.20;99.90;;;;;;5053861;28;20374;-74
2022/09/16 03:09:11;;;;;;;4.93;1.17;;;12.20;99.90;;;;;;5053907;28;20032;-74
2022/09/16 03:12:15;;;;;;;5.25;0.93;;;12.20;99.90;;;;;;5050260;28;20018;-74
2022/09/16 03:15:04;;;;;;;3.45;0.68;;;12.20;99.90;;;;;;5048336;28;20041;-74
2022/09/16 03:17:40;;;;;;;3.83;0.75;;;12.10;99.90;;;;;;5053858;28;20485;-74
2022/09/16 03:20:37;;;;;;;2.75;1.00;;;12.20;99.90;;;;;;5053102;28;20025;-74
2022/09/16 03:23:10;;;;;;;5.82;0.73;;;12.20;99.90;;;;;;5053177;28;20408;-73
2022/09/16 03:25:54;;;;;;;4.45;0.98;;;12.30;99.90;;;;;;5053158;28;20870;-74
2022/09/16 03:28:23;;;;;;;2.80;0.55;;;12.20;99.90;;;;;;5053327;28;20064;-75
2022/09/16 03:31:27;;;;;;;3.50;0.60;;;12.00;99.90;;;;;;5054024;28;20021;-75
2022/09/16 03:34:12;;;;;;;5.55;1.67;;;11.70;99.90;;;;;;5036507;28;20477;-75
2022/09/16 03:36:44;;;;;;;3.33;0.40;;;11.40;99.90;;;;;;5053275;28;20029;-74
2022/09/16 03:39:11;;;;;;;1.67;0.50;;;11.30;99.90;;;;;;5053343;28;20419;-74
2022/09/16 03:41:38;;;;;;;1.15;0.50;;;11.20;99.90;;;;;;5052806;28;20025;-74
2022/09/16 03:44:04;;;;;;;0.40;0.20;;;11.10;99.90;;;;;;5053196;28;20404;-76
2022/09/16 03:46:31;;;;;;;1.00;0.40;;;11.10;99.90;;;;;;5052854;28;20028;-75
2022/09/16 03:48:57;;;;;;;1.70;0.45;;;11.00;99.90;;;;;;5053825;28;20047;-76
2022/09/16 03:51:24;;;;;;;1.95;0.40;;;11.00;99.90;;;;;;5053170;28;20136;-74
2022/09/16 03:53:50;;;;;;;2.75;0.55;;;11.00;99.90;;;;;;5052357;28;20040;-74
2022/09/16 03:56:16;;;;;;;1.92;0.40;;;11.00;99.90;;;;;;5053041;28;20049;-75
2022/09/16 03:58:42;;;;;;;1.08;0.30;;;10.90;99.90;;;;;;5053372;28;20114;-76
2022/09/16 04:01:07;;;;;;;1.38;0.43;;;10.90;99.90;;;;;;5051542;28;20032;-76
2022/09/16 04:03:37;;;;;;;3.53;0.50;;;10.90;99.90;;;;;;5053356;28;20017;-77
2022/09/16 04:06:03;;;;;;;1.73;0.45;;;11.00;99.90;;;;;;5053254;28;20021;-77
2022/09/16 04:08:28;;;;;;;2.65;0.80;;;11.00;99.90;;;;;;5052474;28;20029;-75
2022/09/16 04:10:54;;;;;;;1.58;0.40;;;11.10;99.90;;;;;;5052814;28;20489;-75
2022/09/16 04:13:20;;;;;;;3.08;0.55;;;11.10;99.90;;;;;;5052354;28;20025;-76
2022/09/16 04:15:45;;;;;;;0.68;0.40;;;11.10;99.90;;;;;;5052421;28;20120;-75
2022/09/16 04:18:12;;;;;;;3.03;0.50;;;11.00;99.90;;;;;;5052553;28;20021;-76
2022/09/16 04:20:37;;;;;;;1.08;0.43;;;11.00;99.90;;;;;;5053676;28;20028;-76
2022/09/16 04:23:03;;;;;;;2.60;0.52;;;11.00;99.90;;;;;;5051977;28;20013;-77
2022/09/16 04:25:29;;;;;;;4.60;1.20;;;11.00;99.90;;;;;;5052305;28;20032;-76
2022/09/16 04:27:56;;;;;;;1.73;0.60;;;11.00;99.90;;;;;;5052749;28;20121;-76
2022/09/16 04:30:21;;;;;;;4.43;0.68;;;11.00;99.90;;;;;;5052103;28;20017;-76
2022/09/16 04:32:51;;;;;;;3.05;0.40;;;11.00;99.90;;;;;;5052687;28;20384;-76
2022/09/16 04:35:18;;;;;;;3.67;0.50;;;11.10;99.90;;;;;;5051907;28;20044;-75
2022/09/16 04:37:44;;;;;;;4.13;1.17;;;11.00;99.90;;;;;;5051993;28;20024;-76
2022/09/16 04:40:09;;;;;;;4.40;0.77;;;11.10;99.90;;;;;;5052196;28;20029;-77
2022/09/16 04:42:35;;;;;;;3.15;0.70;;;11.20;99.90;;;;;;5052617;28;20469;-76
2022/09/16 04:45:00;;;;;;;3.28;0.70;;;11.30;99.90;;;;;;5052175;28;20400;-76
2022/09/16 04:47:26;;;;;;;2.38;0.57;;;11.30;99.90;;;;;;5052894;28;20021;-77
2022/09/16 04:49:51;;;;;;;6.53;1.30;;;11.30;99.90;;;;;;5051738;28;20032;-75
2022/09/16 04:52:17;;;;;;;3.85;0.88;;;11.20;99.90;;;;;;5051731;28;20103;-75
2022/09/16 04:54:42;;;;;;;3.38;0.63;;;11.20;99.90;;;;;;5052076;28;20040;-75
2022/09/16 04:57:08;;;;;;;2.55;0.57;;;11.80;99.90;;;;;;5051097;28;20025;-77
2022/09/16 04:59:34;;;;;;;5.32;0.80;;;11.20;99.90;;;;;;5051956;28;20495;-77
2022/09/16 05:02:00;;;;;;;6.22;0.85;;;11.30;99.90;;;;;;5052062;28;20112;-77
2022/09/16 05:04:25;;;;;;;1.95;0.70;;;11.40;99.90;;;;;;5051121;28;20483;-76
2022/09/16 05:06:51;;;;;;;6.32;1.00;;;11.40;99.90;;;;;;5044496;28;20044;-75
2022/09/16 05:09:16;;;;;;;3.45;0.80;;;11.40;99.90;;;;;;5034748;28;20041;-76
2022/09/16 05:11:42;;;;;;;6.68;1.27;;;11.40;99.90;;;;;;5031409;28;20020;-75
2022/09/16 05:14:15;;;;;;;1.48;0.70;;;11.30;99.90;;;;;;5041856;28;20510;-76
2022/09/16 05:16:40;;;;;;;4.82;0.93;;;11.20;99.90;;;;;;5052098;28;20144;-76
2022/09/16 05:19:06;;;;;;;4.18;0.85;;;11.20;99.90;;;;;;5051069;28;20051;-76
2022/09/16 05:21:36;;;;;;;3.17;0.85;;;11.20;99.90;;;;;;5051793;28;20021;-76
2022/09/16 05:24:06;;;;;;;6.57;1.38;;;11.20;99.90;;;;;;5051494;28;20045;-76
2022/09/16 05:26:34;;;;;;;6.75;1.10;;;11.20;99.90;;;;;;5051219;28;20021;-76
2022/09/16 05:29:02;;;;;;;2.60;1.05;;;11.20;99.90;;;;;;5036722;28;20389;-76
2022/09/16 05:31:30;;;;;;;3.72;0.80;;;11.10;99.90;;;;;;5033547;28;20112;-76
2022/09/16 05:34:12;;;;;;;4.00;1.00;;;11.10;99.90;;;;;;5031438;28;20038;-76
2022/09/16 05:36:38;;;;;;;11.80;1.15;;;11.10;99.90;;;;;;5037200;28;20037;-76
2022/09/16 05:39:05;;;;;;;2.30;0.73;;;11.00;99.90;;;;;;5032479;28;20036;-77
2022/09/16 05:41:30;;;;;;;6.10;0.93;;;11.00;99.90;;;;;;5033228;28;20021;-76
2022/09/16 05:44:00;;;;;;;4.68;1.00;;;11.00;99.90;;;;;;5038005;28;20026;-76
2022/09/16 05:46:25;;;;;;;5.95;1.30;;;11.00;99.90;;;;;;5044148;28;20430;-77
2022/09/16 05:48:51;;;;;;;4.78;1.10;;;10.90;99.90;;;;;;5038357;28;20032;-75
2022/09/16 05:51:21;;;;;;;7.55;1.92;;;10.90;99.90;;;;;;5031376;28;20033;-77
2022/09/16 05:53:48;;;;;;;4.60;1.23;;;11.00;99.90;;;;;;5031384;28;20045;-79
2022/09/16 05:56:15;;;;;;;6.32;1.65;;;11.00;99.90;;;;;;5031501;28;20021;-75
2022/09/16 05:58:41;;;;;;;6.55;1.45;;;11.10;99.90;;;;;;5031728;28;20091;-75
2022/09/16 06:01:10;;;;;;;6.13;2.00;;;11.00;99.90;;;;;;5040985;28;20065;-76
2022/09/16 06:03:38;;;;;;;7.78;1.65;;;11.20;99.90;;;;;;5031388;28;20109;-75
2022/09/16 06:06:11;;;;;;;14.60;2.08;;;11.30;99.90;;;;;;5030707;28;20034;-74
2022/09/16 06:08:38;;;;;;;8.05;1.85;;;12.20;99.90;;;;;;5029829;28;20116;-75
2022/09/16 06:11:05;;;;;;;5.00;1.45;;;11.50;99.90;;;;;;5032149;28;20026;-74
2022/09/16 06:13:31;;;;;;;10.95;1.75;;;11.60;99.90;;;;;;5031106;28;20493;-75
2022/09/16 06:15:59;;;;;;;4.00;1.67;;;11.70;99.90;;;;;;5030522;28;20035;-75
2022/09/16 06:18:28;;;;;;;5.78;1.60;;;11.80;99.90;;;;;;5032681;28;20044;-75
2022/09/16 06:20:54;;;;;;;7.60;2.00;;;12.10;99.90;;;;;;5032939;28;20017;-75
2022/09/16 06:23:21;;;;;;;4.68;1.60;;;12.00;99.90;;;;;;5029011;28;20047;-75
2022/09/16 06:25:47;;;;;;;10.25;1.85;;;12.20;99.90;;;;;;5034570;28;20045;-74
2022/09/16 06:28:13;;;;;;;5.35;2.08;;;12.50;99.90;;;;;;5033674;28;20079;-75
2022/09/16 06:30:39;;;;;;;9.32;2.13;;;12.70;99.90;;;;;;5034308;28;20068;-73
2022/09/16 06:33:06;;;;;;;5.55;1.88;;;12.90;99.90;;;;;;5034455;28;20350;-73
2022/09/16 06:35:34;;;;;;;8.45;1.80;;;13.00;99.90;;;;;;5033629;28;20080;-74
2022/09/16 06:38:00;;;;;;;7.82;1.10;;;13.00;99.90;;;;;;5035271;28;20025;-74
2022/09/16 06:40:26;;;;;;;9.70;0.98;;;12.70;99.90;;;;;;5034038;28;20033;-74
2022/09/16 06:42:53;;;;;;;4.10;0.70;;;12.30;99.90;;;;;;5034022;28;20017;-75
2022/09/16 06:45:19;;;;;;;1.80;0.70;;;12.60;99.90;;;;;;5034248;28;20665;-74
2022/09/16 06:47:44;;;;;;;4.35;0.90;;;11.90;99.90;;;;;;5035479;28;20025;-75
2022/09/16 06:50:10;;;;;;;6.63;1.15;;;11.70;99.90;;;;;;5046668;28;20564;-74
2022/09/16 06:52:36;;;;;;;7.45;1.27;;;11.50;99.90;;;;;;5035167;28;20507;-73
2022/09/16 06:55:02;;;;;;;7.95;1.10;;;11.40;99.90;;;;;;5045050;28;20037;-75
2022/09/16 06:57:27;;;;;;;7.43;0.93;;;11.20;99.90;;;;;;5036098;28;20022;-75
2022/09/16 06:59:53;;;;;;;3.88;0.77;;;11.10;99.90;;;;;;5034503;28;20036;-75
2022/09/16 07:02:19;;;;;;;3.35;0.77;;;11.00;99.90;;;;;;5033129;28;20078;-74
2022/09/16 07:04:45;;;;;;;7.43;1.23;;;11.00;99.90;;;;;;5032482;28;20030;-76
2022/09/16 07:07:11;;;;;;;6.28;1.20;;;11.40;99.90;;;;;;5041586;28;20031;-76
2022/09/16 07:09:37;;;;;;;6.65;1.00;;;11.00;99.90;;;;;;5046629;28;20514;-75
2022/09/16 07:12:03;;;;;;;6.53;1.02;;;11.00;99.90;;;;;;5045777;28;21359;-76
2022/09/16 07:14:31;;;;;;;9.80;1.35;;;11.10;99.90;;;;;;5047303;28;20039;-74
2022/09/16 07:16:57;;;;;;;7.32;1.13;;;11.20;99.90;;;;;;5039501;28;20022;-75
2022/09/16 07:19:24;;;;;;;6.65;1.77;;;11.30;99.90;;;;;;5035636;28;20049;-77
2022/09/16 07:21:50;;;;;;;6.75;1.20;;;11.40;99.90;;;;;;5039011;28;20075;-76
2022/09/16 07:24:18;;;;;;;5.95;0.88;;;11.50;99.90;;;;;;5038538;28;20046;-76
2022/09/16 07:26:45;;;;;;;7.15;1.48;;;11.60;99.90;;;;;;5033586;28;20036;-77
2022/09/16 07:29:14;;;;;;;7.63;1.20;;;11.80;99.90;;;;;;5034149;28;20554;-76
2022/09/16 07:31:42;;;;;;;8.85;1.70;;;11.90;99.90;;;;;;5034378;28;20022;-76
2022/09/16 07:34:10;;;;;;;4.93;1.42;;;12.10;99.90;;;;;;5046354;28;20059;-76
2022/09/16 07:36:41;;;;;;;14.20;1.20;;;12.20;99.90;;;;;;5052564;28;20443;-77
2022/09/16 07:39:08;;;;;;;4.50;1.58;;;12.40;99.90;;;;;;5047040;28;20501;-77
2022/09/16 07:41:36;;;;;;;11.10;1.63;;;12.60;99.90;;;;;;5042770;28;20024;-77
2022/09/16 07:44:03;;;;;;;5.75;0.95;;;12.80;99.90;;;;;;5050123;28;20056;-77
2022/09/16 07:46:31;;;;;;;8.13;1.23;;;13.10;99.90;;;;;;5042943;28;20465;-77
2022/09/16 07:48:58;;;;;;;6.90;1.08;;;13.10;99.90;;;;;;5033926;28;20112;-77
2022/09/16 07:51:26;;;;;;;4.85;1.35;;;13.30;99.90;;;;;;5033242;28;20109;-77
2022/09/16 07:54:01;;;;;;;6.43;1.13;;;13.20;99.90;;;;;;5042844;28;20029;-76
2022/09/16 07:56:28;;;;;;;11.95;1.40;;;13.20;99.90;;;;;;5033899;28;20093;-76
2022/09/16 07:58:55;;;;;;;3.22;1.00;;;13.30;99.90;;;;;;5033574;28;20025;-80
2022/09/16 08:01:21;;;;;;;7.13;1.20;;;13.30;99.90;;;;;;5032576;28;20072;-74
2022/09/16 08:03:47;;;;;;;7.53;1.10;;;13.30;99.90;;;;;;5036115;28;20108;-78
2022/09/16 08:06:22;;;;;;;2.20;0.70;;;13.50;99.90;;;;;;5033173;28;20045;-76
2022/09/16 08:08:50;;;;;;;8.18;1.17;;;13.50;99.90;;;;;;5032451;28;20029;-77
2022/09/16 08:11:16;;;;;;;5.75;0.85;;;13.60;99.90;;;;;;5033053;28;20087;-79
2022/09/16 08:13:44;;;;;;;8.27;1.00;;;13.70;99.90;;;;;;5039555;28;20032;-79
2022/09/16 08:16:12;;;;;;;2.63;1.08;;;13.80;99.90;;;;;;5054053;28;20033;-74
2022/09/16 08:18:38;;;;;;;3.47;0.98;;;13.90;99.90;;;;;;5053788;28;20021;-79
2022/09/16 08:21:16;;;;;;;10.80;1.38;;;14.00;99.90;;;;;;5052057;28;20472;-80
2022/09/16 08:23:42;;;;;;;6.00;1.25;;;14.00;99.90;;;;;;5042277;28;20134;-77
2022/09/16 08:26:12;;;;;;;9.35;1.85;;;13.90;99.90;;;;;;5036271;28;20060;-75
2022/09/16 08:28:40;;;;;;;14.15;2.10;;;13.80;99.90;;;;;;5052793;28;20025;-78
2022/09/16 08:31:06;;;;;;;2.55;0.95;;;13.60;99.90;;;;;;5053077;28;20116;-78
2022/09/16 08:33:32;;;;;;;2.92;1.20;;;13.30;99.90;;;;;;5051509;28;20028;-77
2022/09/16 08:36:04;;;;;;;3.15;0.85;;;13.00;99.90;;;;;;5032439;28;20025;-76
2022/09/16 08:38:31;;;;;;;4.55;0.70;;;12.70;99.90;;;;;;5031694;28;20477;-76
2022/09/16 08:41:14;;;;;;;3.15;0.98;;;12.60;99.90;;;;;;5032521;28;20040;-75
2022/09/16 08:43:46;;;;;;;3.95;1.30;;;12.50;99.90;;;;;;5031824;28;20420;-75
2022/09/16 08:46:21;;;;;;;2.17;0.40;;;12.30;99.90;;;;;;5032065;28;20028;-75
2022/09/16 08:49:04;;;;;;;1.65;0.50;;;12.20;99.90;;;;;;5036419;28;20344;-76
2022/09/16 08:51:30;;;;;;;3.63;0.55;;;12.20;99.90;;;;;;5033539;28;20420;-75
2022/09/16 08:54:11;;;;;;;1.45;0.80;;;12.10;99.90;;;;;;5032284;28;20037;-76
2022/09/16 08:56:38;;;;;;;2.78;0.60;;;12.20;99.90;;;;;;5031891;28;20393;-77
2022/09/16 08:59:10;;;;;;;5.85;0.68;;;12.30;99.90;;;;;;5038684;28;20025;-78
2022/09/16 09:01:50;;;;;;;6.75;0.93;;;12.40;99.90;;;;;;5036950;28;20474;-76
2022/09/16 09:04:16;;;;;;;3.55;0.95;;;12.50;99.90;;;;;;5032434;28;20028;-76
2022/09/16 09:07:18;;;;;;;2.08;0.65;;;12.70;99.90;;;;;;5035317;28;20041;-77
2022/09/16 09:10:10;;;;;;;3.15;0.43;;;12.90;99.90;;;;;;5035128;28;20025;-77
2022/09/16 09:12:52;;;;;;;4.32;0.70;;;13.10;99.90;;;;;;5032288;28;20034;-77
2022/09/16 09:15:33;;;;;;;1.95;0.50;;;13.30;99.90;;;;;;5051269;28;20045;-78
2022/09/16 09:18:07;;;;;;;2.25;0.63;;;13.60;99.90;;;;;;5052069;28;20025;-80
2022/09/16 09:21:10;;;;;;;4.90;0.70;;;13.70;99.90;;;;;;5052873;28;20037;-78
2022/09/16 09:24:05;;;;;;;2.08;0.90;;;13.80;99.90;;;;;;5052853;28;20045;-78
2022/09/16 09:26:37;;;;;;;4.18;0.85;;;13.70;99.90;;;;;;5054023;28;20086;-80
2022/09/16 09:29:26;;;;;;;5.22;0.77;;;13.50;99.90;;;;;;5053176;28;20025;-81
2022/09/16 09:32:13;;;;;;;10.85;1.17;;;12.90;99.90;;;;;;5054270;28;20032;-81
2022/09/16 09:34:41;;;;;;;5.45;1.15;;;13.30;99.90;;;;;;5054504;28;20029;-80
2022/09/16 09:37:32;;;;;;;8.45;1.25;;;13.50;99.90;;;;;;5053091;28;20336;-78
2022/09/16 09:40:30;;;;;;;4.57;1.25;;;13.50;99.90;;;;;;5042405;28;20044;-80
2022/09/16 09:43:13;;;;;;;5.05;1.55;;;13.70;99.90;;;;;;5054305;28;20070;-78
2022/09/16 09:46:16;;;;;;;6.75;1.05;;;13.80;99.90;;;;;;5053780;28;20021;-78
2022/09/16 09:48:49;;;;;;;7.05;1.15;;;13.90;99.90;;;;;;5056675;28;20040;-78
2022/09/16 09:51:40;;;;;;;5.15;1.27;;;14.00;99.90;;;;;;5058347;28;20036;-78
2022/09/16 09:54:28;;;;;;;8.57;1.20;;;14.10;99.90;;;;;;5059883;28;20041;-78
2022/09/16 09:57:04;;;;;;;5.05;0.98;;;14.20;99.90;;;;;;5059555;28;20029;-77
2022/09/16 09:59:44;;;;;;;3.15;0.60;;;14.30;99.90;;;;;;5052479;28;20031;-79
2022/09/16 10:02:19;;;;;;;5.55;1.02;;;14.20;99.90;;;;;;5055683;28;20051;-80
2022/09/16 10:04:44;;;;;;;5.15;1.15;;;14.20;99.90;;;;;;5051471;28;20037;-80
2022/09/16 10:07:14;;;;;;;5.88;1.52;;;14.10;99.90;;;;;;5043023;28;20409;-79
2022/09/16 10:10:01;;;;;;;4.15;1.05;;;14.10;99.90;;;;;;5047009;28;20112;-80
2022/09/16 10:12:33;;;;;;;3.90;0.70;;;14.10;99.90;;;;;;5041746;28;20064;-79
2022/09/16 10:14:59;;;;;;;3.20;0.70;;;14.00;99.90;;;;;;5051616;28;20036;-80
2022/09/16 10:17:26;;;;;;;7.97;0.80;;;14.00;99.90;;;;;;5055579;28;20067;-79
2022/09/16 10:20:02;;;;;;;7.03;1.02;;;14.10;99.90;;;;;;5055392;28;20096;-79
2022/09/16 10:22:30;;;;;;;4.35;1.02;;;14.20;99.90;;;;;;5054526;28;20028;-79
2022/09/16 10:25:02;;;;;;;4.80;0.93;;;14.40;99.90;;;;;;5055174;28;20064;-79
2022/09/16 10:27:33;;;;;;;6.80;0.90;;;14.60;99.90;;;;;;5054849;28;20025;-80
2022/09/16 10:30:15;;;;;;;5.13;0.93;;;14.80;99.90;;;;;;5049489;28;20032;-79
2022/09/16 10:32:45;;;;;;;3.63;0.95;;;14.90;99.90;;;;;;5035449;28;20025;-78
2022/09/16 10:35:19;;;;;;;;;;;14.70;99.90;;;;;;5034767;28;20072;-78
2022/09/16 10:38:07;;;;;;;5.47;0.70;;;14.50;99.90;;;;;;5035476;28;19948;-79
2022/09/16 10:40:33;;;;;;;4.25;1.13;;;14.20;99.90;;;;;;5034664;28;20018;-79
2022/09/16 10:43:03;;;;;;;2.40;0.70;;;14.00;99.90;;;;;;5035522;28;20374;-79
2022/09/16 10:45:36;;;;;;;4.05;0.75;;;13.80;99.90;;;;;;5045771;28;20075;-79
2022/09/16 10:48:11;;;;;;;3.88;0.68;;;13.70;99.90;;;;;;5053600;28;20085;-80
2022/09/16 10:50:37;;;;;;;2.85;0.60;;;13.50;99.90;;;;;;5043212;28;20029;-79
2022/09/16 10:53:19;;;;;;;5.90;1.38;;;13.50;99.90;;;;;;5051233;28;20024;-79
2022/09/16 10:55:56;;;;;;;4.25;1.13;;;13.40;99.90;;;;;;5037436;28;20196;-78
2022/09/16 10:58:22;;;;;;;6.90;1.40;;;13.40;99.90;;;;;;5052504;28;20166;-78
2022/09/16 11:01:02;;;;;;;5.90;1.25;;;13.50;99.90;;;;;;5038455;28;20021;-78
2022/09/16 11:03:34;;;;;;;2.28;0.95;;;13.50;99.90;;;;;;5034709;28;20020;-78
2022/09/16 11:06:12;;;;;;;4.40;0.98;;;13.60;99.90;;;;;;5035354;28;20397;-78
2022/09/16 11:09:14;;;;;;;3.05;0.73;;;13.60;99.90;;;;;;5034538;28;20025;-77
2022/09/16 11:12:08;;;;;;;5.47;1.10;;;13.80;99.90;;;;;;5049705;28;20056;-78
2022/09/16 11:14:39;;;;;;;4.82;0.85;;;14.10;99.90;;;;;;5052642;28;20489;-78
2022/09/16 11:17:10;;;;;;;3.83;1.05;;;14.40;99.90;;;;;;5038131;28;20517;-80
2022/09/16 11:19:46;;;;;;;7.50;1.73;;;14.40;99.90;;;;;;5053200;28;20090;-80
2022/09/16 11:22:19;;;;;;;5.50;1.33;;;13.80;99.90;;;;;;5034724;28;20021;-81
2022/09/16 11:25:20;;;;;;;4.13;0.90;;;13.40;99.90;;;;;;5045952;28;20061;-80
2022/09/16 11:27:52;;;;;;;;;;;13.10;99.90;;;;;;5035311;28;20029;-80
2022/09/16 11:30:21;;;;;;;2.53;0.47;;;12.80;99.90;;;;;;5034865;28;19909;-79
2022/09/16 11:33:19;;;;;;;3.22;0.50;;;12.70;99.90;;;;;;5035318;28;20393;-79
2022/09/16 11:35:53;;;;;;;4.28;0.80;;;12.70;99.90;;;;;;5034530;28;20026;-80
2022/09/16 11:38:37;;;;;;;3.78;0.90;;;12.70;99.90;;;;;;5033751;28;20033;-80
2022/09/16 11:41:15;;;;;;;3.20;0.85;;;12.90;99.90;;;;;;5034457;28;20029;-79
2022/09/16 11:44:24;;;;;;;2.75;0.93;;;13.00;99.90;;;;;;5033996;28;20511;-79
2022/09/16 11:47:11;;;;;;;3.85;1.00;;;13.10;99.90;;;;;;5032960;28;20022;-79
2022/09/16 11:49:58;;;;;;;2.75;0.93;;;13.40;99.90;;;;;;5034118;28;20056;-79
2022/09/16 11:52:36;;;;;;;5.35;0.57;;;13.60;99.90;;;;;;5032621;28;20022;-79
2022/09/16 11:55:35;;;;;;;3.58;0.90;;;13.60;99.90;;;;;;5033599;28;20060;-78
2022/09/16 11:58:19;;;;;;;6.22;0.82;;;13.60;99.90;;;;;;5036172;28;20025;-78
2022/09/16 12:00:47;;;;;;;4.43;0.77;;;13.80;99.90;;;;;;5032753;28;20021;-80
2022/09/16 12:03:33;;;;;;;8.77;1.83;;;14.00;99.90;;;;;;5032571;28;20489;-77
2022/09/16 12:06:07;;;;;;;9.60;1.30;;;14.10;99.90;;;;;;5031178;28;20029;-77
2022/09/16 12:09:01;;;;;;;12.85;1.95;;;14.10;99.90;;;;;;5032001;28;20060;-77
2022/09/16 12:11:45;;;;;;;10.88;1.83;;;14.40;99.90;;;;;;5040170;28;20033;-78
2022/09/16 12:14:15;;;;;;;9.35;1.42;;;14.40;99.90;;;;;;5046455;28;20058;-78
2022/09/16 12:16:53;;;;;;;10.35;1.42;;;14.30;99.90;;;;;;5046978;28;20104;-77
2022/09/16 12:19:30;;;;;;;6.13;1.10;;;14.40;99.90;;;;;;5044335;28;20052;-78
2022/09/16 12:22:11;;;;;;;9.35;1.60;;;14.20;99.90;;;;;;5040886;28;20480;-78
2022/09/16 12:24:37;;;;;;;2.40;0.77;;;13.90;99.90;;;;;;5043001;28;20095;-81
2022/09/16 12:27:25;;;;;;;12.52;1.77;;;13.60;99.90;;;;;;5039326;28;20021;-80
2022/09/16 12:30:05;;;;;;;5.32;1.40;;;13.30;99.90;;;;;;5032284;28;20056;-78
2022/09/16 12:32:49;;;;;;;5.50;1.10;;;13.20;99.90;;;;;;5032099;28;20049;-79
2022/09/16 12:35:26;;;;;;;3.33;0.73;;;13.20;99.90;;;;;;5031886;28;20495;-77
2022/09/16 12:37:53;;;;;;;6.70;1.20;;;13.00;99.90;;;;;;5032408;28;20075;-78
2022/09/16 12:40:23;;;;;;;9.20;1.60;;;12.80;99.90;;;;;;5038488;28;20104;-78
2022/09/16 12:42:51;;;;;;;13.90;1.60;;;12.70;99.90;;;;;;5033091;28;20481;-79
2022/09/16 12:45:25;;;;;;;4.90;1.40;;;12.50;99.90;;;;;;5042374;28;20260;-77
2022/09/16 12:48:00;;;;;;;7.05;1.00;;;12.40;99.90;;;;;;5042441;28;20025;-78
2022/09/16 12:50:45;;;;;;;9.93;1.08;;;12.40;99.90;;;;;;5046354;28;20033;-77
2022/09/16 12:53:33;;;;;;;15.50;1.58;;;12.60;99.90;;;;;;5035546;28;20040;-78
2022/09/16 12:56:20;;;;;;;9.13;1.67;;;12.70;99.90;;;;;;5030838;28;20071;-78
2022/09/16 12:59:03;;;;;;;10.95;1.50;;;12.90;99.90;;;;;;5046006;28;20017;-78
2022/09/16 13:01:41;;;;;;;13.27;1.90;;;13.10;99.90;;;;;;5045387;28;20028;-77
2022/09/16 13:04:24;;;;;;;5.95;1.40;;;13.40;99.90;;;;;;5037860;28;20029;-78
2022/09/16 13:06:57;;;;;;;10.23;1.35;;;13.80;99.90;;;;;;5044847;28;20105;-78
2022/09/16 13:09:32;;;;;;;7.82;1.27;;;14.20;99.90;;;;;;5040742;28;20065;-78
2022/09/16 13:12:04;;;;;;;8.38;0.80;;;14.40;99.90;;;;;;5036571;28;20030;-78
2022/09/16 13:14:42;;;;;;;4.60;1.45;;;14.50;99.90;;;;;;5042570;28;20028;-76
2022/09/16 13:17:10;;;;;;;4.20;1.00;;;14.40;99.90;;;;;;5042107;28;20039;-77
2022/09/16 13:19:38;;;;;;;3.25;0.95;;;14.30;99.90;;;;;;5045211;28;20078;-77